createdAt,value
2017-08-31T00:01:20.280Z,21.04
2017-08-31T00:03:50.096Z,21.01
2017-08-31T00:06:19.433Z,20.98
2017-08-31T00:08:49.018Z,20.98
2017-08-31T00:11:19.108Z,21.00
2017-08-31T00:16:18.352Z,20.99
2017-08-31T00:18:48.277Z,20.99
2017-08-31T00:21:17.933Z,20.98
2017-08-31T00:23:47.277Z,20.96
2017-08-31T00:26:17.304Z,20.92
2017-08-31T00:28:46.857Z,20.93
2017-08-31T00:31:16.215Z,20.91
2017-08-31T00:33:45.540Z,20.91
2017-08-31T00:36:14.860Z,20.93
2017-08-31T00:38:44.292Z,20.89
2017-08-31T00:41:14.195Z,20.85
2017-08-31T00:43:44.021Z,20.86
2017-08-31T00:46:13.685Z,20.81
2017-08-31T00:48:43.183Z,20.77
2017-08-31T00:51:12.624Z,20.77
2017-08-31T00:53:42.496Z,20.65
2017-08-31T00:56:13.528Z,20.74
2017-08-31T00:58:44.483Z,20.67
2017-08-31T01:01:16.787Z,20.70
2017-08-31T01:03:47.476Z,20.76
2017-08-31T01:06:18.424Z,20.79
2017-08-31T01:08:47.784Z,20.81
2017-08-31T01:11:17.209Z,20.81
2017-08-31T01:13:46.551Z,20.80
2017-08-31T01:16:15.978Z,20.77
2017-08-31T01:18:45.763Z,20.81
2017-08-31T01:21:16.507Z,20.81
2017-08-31T01:23:46.130Z,20.81
2017-08-31T01:26:15.752Z,20.82
2017-08-31T01:28:45.105Z,20.84
2017-08-31T01:31:14.778Z,20.89
2017-08-31T01:33:44.653Z,20.90
2017-08-31T01:36:14.123Z,21.04
2017-08-31T01:38:43.804Z,21.22
2017-08-31T01:41:16.247Z,21.34
2017-08-31T01:43:45.586Z,21.41
2017-08-31T01:46:14.984Z,21.48
2017-08-31T01:48:44.301Z,21.59
2017-08-31T01:51:13.804Z,21.65
2017-08-31T01:53:44.133Z,21.72
2017-08-31T01:56:13.593Z,21.76
2017-08-31T01:58:42.878Z,21.74
2017-08-31T02:01:12.688Z,21.78
2017-08-31T02:03:42.172Z,21.79
2017-08-31T02:06:11.625Z,21.85
2017-08-31T02:08:47.713Z,21.88
2017-08-31T02:11:17.081Z,21.85
2017-08-31T02:13:46.535Z,21.88
2017-08-31T02:16:16.222Z,21.90
2017-08-31T02:18:45.556Z,21.93
2017-08-31T02:21:14.951Z,21.99
2017-08-31T02:23:44.625Z,22.04
2017-08-31T02:26:14.022Z,22.04
2017-08-31T02:28:43.431Z,22.08
2017-08-31T02:31:12.956Z,22.15
2017-08-31T02:33:42.318Z,22.21
2017-08-31T02:36:11.737Z,22.16
2017-08-31T02:38:41.049Z,22.14
2017-08-31T02:41:10.561Z,22.15
2017-08-31T02:43:40.007Z,22.23
2017-08-31T02:46:09.360Z,22.31
2017-08-31T02:48:38.673Z,22.26
2017-08-31T02:51:08.180Z,22.22
2017-08-31T02:53:37.486Z,22.26
2017-08-31T02:56:06.934Z,22.30
2017-08-31T02:58:36.275Z,22.30
2017-08-31T03:01:05.897Z,22.27
2017-08-31T03:03:35.243Z,22.31
2017-08-31T03:06:04.791Z,22.24
2017-08-31T03:08:34.118Z,22.31
2017-08-31T03:11:10.469Z,22.27
2017-08-31T03:13:39.767Z,22.26
2017-08-31T03:16:09.213Z,22.28
2017-08-31T03:18:38.850Z,22.31
2017-08-31T03:21:08.227Z,22.23
2017-08-31T03:23:37.605Z,22.28
2017-08-31T03:26:06.916Z,22.31
2017-08-31T03:28:36.546Z,22.25
2017-08-31T03:31:06.104Z,22.26
2017-08-31T03:33:35.475Z,22.23
2017-08-31T03:36:04.951Z,22.22
2017-08-31T03:38:34.324Z,22.22
2017-08-31T03:41:03.636Z,22.24
2017-08-31T03:43:32.958Z,22.21
2017-08-31T03:46:02.321Z,22.24
2017-08-31T03:48:31.692Z,22.18
2017-08-31T03:51:01.027Z,22.22
2017-08-31T03:53:30.352Z,22.15
2017-08-31T03:55:59.678Z,22.21
2017-08-31T03:58:29.228Z,22.15
2017-08-31T04:00:58.676Z,22.18
2017-08-31T04:03:28.201Z,22.25
2017-08-31T04:05:57.538Z,22.26
2017-08-31T04:08:26.955Z,22.26
2017-08-31T04:10:59.280Z,22.26
2017-08-31T04:13:28.626Z,22.18
2017-08-31T04:15:58.286Z,22.13
2017-08-31T04:18:27.571Z,22.15
2017-08-31T04:20:57.256Z,22.07
2017-08-31T04:23:26.565Z,22.09
2017-08-31T04:25:55.872Z,22.12
2017-08-31T04:28:25.201Z,22.14
2017-08-31T04:30:54.921Z,22.12
2017-08-31T04:33:24.227Z,22.17
2017-08-31T04:35:53.618Z,22.15
2017-08-31T04:38:22.913Z,22.15
2017-08-31T04:40:52.239Z,22.09
2017-08-31T04:43:21.528Z,22.08
2017-08-31T04:45:50.879Z,22.08
2017-08-31T04:48:20.379Z,22.05
2017-08-31T04:50:49.742Z,22.04
2017-08-31T04:53:19.172Z,22.08
2017-08-31T04:55:48.836Z,22.09
2017-08-31T04:58:18.828Z,22.10
2017-08-31T05:00:48.194Z,22.12
2017-08-31T05:03:17.531Z,22.11
2017-08-31T05:05:47.336Z,22.19
2017-08-31T05:08:16.797Z,22.17
2017-08-31T05:10:46.190Z,22.19
2017-08-31T05:13:15.525Z,22.18
2017-08-31T05:15:44.916Z,22.15
2017-08-31T05:18:14.253Z,22.18
2017-08-31T05:20:43.621Z,22.17
2017-08-31T05:23:13.024Z,22.21
2017-08-31T05:25:42.609Z,22.17
2017-08-31T05:28:11.968Z,22.25
2017-08-31T05:30:41.608Z,22.23
2017-08-31T05:33:12.348Z,22.23
2017-08-31T05:35:47.029Z,22.31
2017-08-31T05:38:16.937Z,22.26
2017-08-31T05:40:46.349Z,22.32
2017-08-31T05:43:15.754Z,22.21
2017-08-31T05:45:46.124Z,22.14
2017-08-31T05:48:15.844Z,22.13
2017-08-31T05:50:45.166Z,22.25
2017-08-31T05:53:14.772Z,22.28
2017-08-31T05:55:44.607Z,22.39
2017-08-31T05:58:14.118Z,22.44
2017-08-31T06:00:43.470Z,22.68
2017-08-31T06:03:13.016Z,22.81
2017-08-31T06:05:42.414Z,22.85
2017-08-31T06:08:13.057Z,23.06
2017-08-31T06:10:44.233Z,23.55
2017-08-31T06:13:13.977Z,23.94
2017-08-31T06:15:43.524Z,24.44
2017-08-31T06:18:12.825Z,24.84
2017-08-31T06:20:42.311Z,25.17
2017-08-31T06:23:11.892Z,25.37
2017-08-31T06:25:41.215Z,25.37
2017-08-31T06:28:11.064Z,25.63
2017-08-31T06:30:40.457Z,25.71
2017-08-31T06:33:09.861Z,25.36
2017-08-31T06:35:39.276Z,25.38
2017-08-31T06:38:08.639Z,25.17
2017-08-31T06:40:38.269Z,24.93
2017-08-31T06:43:07.660Z,25.09
2017-08-31T06:45:37.161Z,25.03
2017-08-31T06:48:06.907Z,25.04
2017-08-31T06:50:36.345Z,25.16
2017-08-31T06:53:05.699Z,25.25
2017-08-31T06:55:35.057Z,25.50
2017-08-31T06:58:04.341Z,25.33
2017-08-31T07:00:33.873Z,25.34
2017-08-31T07:03:03.368Z,25.14
2017-08-31T07:05:32.739Z,24.91
2017-08-31T07:08:02.124Z,25.07
2017-08-31T07:10:31.718Z,24.73
2017-08-31T07:13:01.155Z,24.57
2017-08-31T07:15:30.562Z,24.76
2017-08-31T07:18:00.027Z,24.76
2017-08-31T07:20:29.452Z,24.68
2017-08-31T07:22:58.919Z,24.71
2017-08-31T07:25:28.288Z,24.58
2017-08-31T07:27:57.746Z,24.73
2017-08-31T07:30:27.384Z,24.91
2017-08-31T07:32:57.387Z,24.86
2017-08-31T07:35:27.260Z,24.93
2017-08-31T07:37:56.641Z,24.77
2017-08-31T07:40:25.956Z,24.86
2017-08-31T07:42:55.272Z,24.84
2017-08-31T07:45:24.664Z,24.76
2017-08-31T07:47:53.990Z,24.94
2017-08-31T07:50:23.343Z,24.92
2017-08-31T07:52:52.668Z,24.97
2017-08-31T07:55:22.091Z,25.04
2017-08-31T07:57:51.416Z,25.13
2017-08-31T08:00:20.765Z,25.20
2017-08-31T08:02:50.121Z,25.41
2017-08-31T08:05:19.818Z,25.33
2017-08-31T08:07:49.514Z,25.38
2017-08-31T08:10:18.929Z,25.48
2017-08-31T08:12:48.319Z,25.46
2017-08-31T08:15:17.664Z,25.36
2017-08-31T08:17:47.243Z,25.50
2017-08-31T08:20:16.676Z,25.61
2017-08-31T08:22:45.992Z,25.62
2017-08-31T08:25:15.357Z,25.67
2017-08-31T08:27:44.739Z,25.72
2017-08-31T08:30:14.192Z,25.71
2017-08-31T08:32:43.544Z,25.79
2017-08-31T08:35:12.984Z,25.71
2017-08-31T08:37:42.305Z,25.68
2017-08-31T08:40:11.762Z,25.68
2017-08-31T08:42:41.131Z,25.79
2017-08-31T08:45:10.665Z,25.86
2017-08-31T08:47:40.196Z,25.95
2017-08-31T08:50:10.301Z,26.19
2017-08-31T08:52:39.620Z,26.34
2017-08-31T08:55:09.324Z,26.53
2017-08-31T08:57:38.864Z,26.49
2017-08-31T09:00:08.270Z,26.44
2017-08-31T09:02:37.689Z,26.45
2017-08-31T09:05:09.365Z,26.83
2017-08-31T09:07:38.993Z,26.80
2017-08-31T09:10:10.317Z,26.84
2017-08-31T09:12:40.489Z,26.91
2017-08-31T09:15:10.708Z,27.30
2017-08-31T09:17:40.554Z,27.67
2017-08-31T09:20:11.170Z,27.51
2017-08-31T09:22:40.697Z,27.53
2017-08-31T09:25:11.916Z,27.48
2017-08-31T09:27:41.640Z,27.46
2017-08-31T09:30:11.960Z,26.99
2017-08-31T09:32:41.348Z,26.74
2017-08-31T09:35:10.689Z,26.54
2017-08-31T09:37:40.064Z,26.34
2017-08-31T09:40:09.420Z,26.42
2017-08-31T09:42:38.872Z,26.46
2017-08-31T09:45:08.521Z,26.71
2017-08-31T09:47:37.845Z,26.60
2017-08-31T09:50:07.219Z,26.83
2017-08-31T09:52:36.586Z,26.63
2017-08-31T09:55:06.045Z,26.60
2017-08-31T09:57:40.298Z,26.66
2017-08-31T10:00:11.873Z,26.79
2017-08-31T10:02:42.520Z,26.78
2017-08-31T10:05:12.068Z,26.55
2017-08-31T10:07:42.176Z,26.36
2017-08-31T10:10:12.102Z,26.24
2017-08-31T10:12:45.035Z,26.17
2017-08-31T10:15:15.671Z,26.19
2017-08-31T10:17:45.177Z,26.45
2017-08-31T10:20:14.616Z,26.55
2017-08-31T10:22:43.920Z,26.55
2017-08-31T10:25:13.381Z,26.47
2017-08-31T10:27:43.792Z,26.33
2017-08-31T10:30:13.613Z,26.42
2017-08-31T10:32:42.984Z,26.85
2017-08-31T10:35:12.419Z,28.24
2017-08-31T10:37:42.426Z,28.36
2017-08-31T10:40:11.948Z,27.60
2017-08-31T10:42:41.260Z,27.15
2017-08-31T10:45:10.650Z,26.84
2017-08-31T10:47:41.165Z,26.58
2017-08-31T10:50:10.701Z,26.45
2017-08-31T10:52:40.066Z,26.47
2017-08-31T10:55:09.680Z,26.30
2017-08-31T10:57:38.991Z,26.37
2017-08-31T11:00:09.346Z,26.19
2017-08-31T11:02:40.224Z,26.26
2017-08-31T11:05:11.352Z,26.37
2017-08-31T11:07:40.872Z,26.41
2017-08-31T11:10:12.112Z,26.64
2017-08-31T11:12:46.443Z,26.79
2017-08-31T11:15:17.369Z,26.87
2017-08-31T11:17:49.223Z,27.15
2017-08-31T11:20:20.356Z,26.93
2017-08-31T11:22:49.909Z,26.86
2017-08-31T11:25:19.540Z,26.93
2017-08-31T11:27:48.933Z,26.78
2017-08-31T11:30:18.402Z,26.86
2017-08-31T11:32:49.077Z,26.71
2017-08-31T11:35:18.831Z,26.58
2017-08-31T11:37:48.684Z,26.60
2017-08-31T11:40:18.198Z,26.52
2017-08-31T11:42:47.500Z,26.87
2017-08-31T11:45:18.321Z,26.83
2017-08-31T11:47:48.170Z,26.93
2017-08-31T11:50:17.518Z,26.85
2017-08-31T11:52:46.818Z,26.97
2017-08-31T11:55:16.360Z,26.82
2017-08-31T11:57:48.778Z,27.09
2017-08-31T12:00:18.973Z,27.07
2017-08-31T12:02:53.248Z,27.08
2017-08-31T12:05:22.722Z,27.13
2017-08-31T12:07:52.200Z,27.00
2017-08-31T12:10:22.026Z,27.14
2017-08-31T12:12:52.203Z,27.09
2017-08-31T12:15:21.830Z,27.20
2017-08-31T12:17:51.258Z,27.14
2017-08-31T12:20:20.749Z,27.04
2017-08-31T12:22:50.141Z,27.01
2017-08-31T12:25:19.731Z,26.97
2017-08-31T12:27:49.152Z,27.09
2017-08-31T12:30:18.586Z,27.10
2017-08-31T12:32:48.128Z,27.01
2017-08-31T12:35:17.495Z,26.96
2017-08-31T12:37:46.935Z,26.88
2017-08-31T12:40:16.279Z,26.78
2017-08-31T12:42:45.639Z,26.63
2017-08-31T12:45:15.226Z,26.37
2017-08-31T12:47:45.080Z,26.20
2017-08-31T12:50:15.365Z,25.35
2017-08-31T12:52:59.712Z,24.59
2017-08-31T12:55:29.177Z,24.28
2017-08-31T12:57:58.583Z,23.81
2017-08-31T13:00:28.257Z,23.50
2017-08-31T13:02:57.571Z,23.35
2017-08-31T13:05:27.524Z,23.20
2017-08-31T13:07:57.078Z,23.07
2017-08-31T13:10:26.530Z,22.96
2017-08-31T13:12:55.974Z,22.33
2017-08-31T13:15:25.395Z,22.26
2017-08-31T13:17:54.736Z,22.22
2017-08-31T13:20:24.182Z,22.05
2017-08-31T13:22:53.633Z,21.74
2017-08-31T13:25:23.181Z,21.89
2017-08-31T13:27:52.533Z,21.83
2017-08-31T13:30:21.986Z,21.75
2017-08-31T13:32:51.334Z,21.79
2017-08-31T13:35:20.741Z,21.60
2017-08-31T13:37:50.156Z,21.80
2017-08-31T13:40:19.893Z,21.57
2017-08-31T13:42:49.357Z,21.47
2017-08-31T13:45:18.773Z,21.52
2017-08-31T13:47:48.087Z,21.60
2017-08-31T13:50:17.755Z,21.47
2017-08-31T13:52:48.752Z,21.42
2017-08-31T13:55:18.493Z,21.50
2017-08-31T13:57:47.948Z,21.65
2017-08-31T14:00:17.336Z,21.45
2017-08-31T14:02:46.620Z,21.50
2017-08-31T14:05:15.976Z,21.49
2017-08-31T14:07:45.293Z,21.57
2017-08-31T14:10:14.921Z,21.56
2017-08-31T14:12:45.292Z,21.53
2017-08-31T14:15:14.892Z,21.43
2017-08-31T14:17:44.201Z,21.30
2017-08-31T14:20:14.121Z,21.22
2017-08-31T14:22:43.628Z,21.07
2017-08-31T14:25:12.995Z,21.00
2017-08-31T14:27:42.299Z,20.92
2017-08-31T14:30:11.680Z,20.90
2017-08-31T14:32:41.034Z,20.71
2017-08-31T14:35:10.556Z,20.78
2017-08-31T14:37:39.857Z,20.96
2017-08-31T14:40:09.205Z,20.93
2017-08-31T14:42:38.514Z,20.86
2017-08-31T14:45:07.879Z,21.11
2017-08-31T14:47:39.393Z,21.19
2017-08-31T14:50:08.788Z,21.16
2017-08-31T14:52:38.083Z,21.28
2017-08-31T14:55:07.481Z,21.51
2017-08-31T14:57:37.003Z,21.58
2017-08-31T15:00:06.382Z,21.48
2017-08-31T15:02:36.176Z,21.49
2017-08-31T15:05:05.844Z,21.52
2017-08-31T15:07:35.161Z,21.62
2017-08-31T15:10:04.643Z,21.63
2017-08-31T15:12:34.110Z,21.65
2017-08-31T15:15:03.656Z,21.70
2017-08-31T15:17:33.027Z,21.47
2017-08-31T15:20:02.378Z,21.46
2017-08-31T15:22:31.754Z,21.40
2017-08-31T15:25:01.269Z,21.38
2017-08-31T15:27:30.624Z,21.21
2017-08-31T15:30:00.077Z,21.25
2017-08-31T15:32:30.119Z,21.36
2017-08-31T15:35:00.751Z,21.24
2017-08-31T15:37:33.344Z,21.08
2017-08-31T15:40:02.910Z,20.85
2017-08-31T15:42:32.468Z,20.52
2017-08-31T15:45:01.953Z,20.46
2017-08-31T15:47:31.383Z,20.32
2017-08-31T15:50:03.329Z,20.28
2017-08-31T15:52:40.204Z,20.14
2017-08-31T15:55:10.172Z,19.98
2017-08-31T15:57:39.701Z,20.05
2017-08-31T16:00:18.676Z,19.99
2017-08-31T16:02:52.109Z,20.01
2017-08-31T16:05:21.732Z,19.95
2017-08-31T16:07:51.241Z,19.85
2017-08-31T16:13:04.756Z,19.82
2017-08-31T16:15:34.202Z,19.87
2017-08-31T16:18:03.657Z,19.88
2017-08-31T16:20:33.317Z,19.87
2017-08-31T16:23:02.793Z,19.94
2017-08-31T16:25:32.293Z,19.91
2017-08-31T16:28:01.672Z,19.90
2017-08-31T16:30:31.267Z,19.90
2017-08-31T16:33:00.789Z,19.93
2017-08-31T16:35:30.136Z,19.86
2017-08-31T16:37:59.813Z,19.95
2017-08-31T16:40:29.160Z,19.96
2017-08-31T16:42:58.592Z,19.92
2017-08-31T16:45:28.029Z,19.82
2017-08-31T16:47:57.405Z,19.80
2017-08-31T16:50:27.063Z,19.73
2017-08-31T16:52:56.536Z,19.84
2017-08-31T16:55:26.147Z,19.84
2017-08-31T16:57:55.529Z,19.84
2017-08-31T17:00:24.868Z,19.73
2017-08-31T17:02:54.174Z,19.81
2017-08-31T17:05:23.569Z,19.80
2017-08-31T17:07:52.852Z,19.77
2017-08-31T17:10:22.228Z,19.66
2017-08-31T17:12:51.866Z,19.60
2017-08-31T17:15:21.369Z,19.56
2017-08-31T17:17:50.756Z,19.57
2017-08-31T17:20:20.076Z,19.57
2017-08-31T17:22:49.362Z,19.51
2017-08-31T17:25:19.016Z,19.52
2017-08-31T17:27:48.367Z,19.45
2017-08-31T17:30:19.240Z,19.38
2017-08-31T17:32:48.687Z,19.43
2017-08-31T17:35:18.144Z,19.39
2017-08-31T17:37:48.040Z,19.37
2017-08-31T17:40:17.461Z,19.36
2017-08-31T17:42:46.782Z,19.38
2017-08-31T17:45:16.410Z,19.32
2017-08-31T17:47:45.735Z,19.29
2017-08-31T17:50:15.283Z,19.33
2017-08-31T17:52:44.588Z,19.30
2017-08-31T17:55:16.000Z,19.37
2017-08-31T17:57:45.340Z,19.29
2017-08-31T18:00:15.038Z,19.15
2017-08-31T18:02:45.724Z,19.23
2017-08-31T18:05:15.133Z,19.18
2017-08-31T18:07:44.667Z,19.15
2017-08-31T18:10:14.016Z,19.20
2017-08-31T18:12:43.458Z,19.08
2017-08-31T18:15:12.956Z,19.15
2017-08-31T18:17:42.282Z,19.18
2017-08-31T18:20:11.773Z,19.07
2017-08-31T18:22:41.052Z,19.16
2017-08-31T18:25:11.203Z,19.15
2017-08-31T18:27:52.862Z,19.12
2017-08-31T18:30:27.413Z,19.15
2017-08-31T18:32:56.770Z,19.18
2017-08-31T18:35:26.102Z,19.10
2017-08-31T18:37:55.690Z,19.04
2017-08-31T18:40:25.115Z,19.06
2017-08-31T18:42:54.440Z,18.95
2017-08-31T18:45:23.896Z,18.98
2017-08-31T18:47:53.196Z,18.91
2017-08-31T18:50:22.537Z,18.99
2017-08-31T18:52:51.855Z,18.93
2017-08-31T18:55:21.449Z,18.98
2017-08-31T18:57:50.720Z,18.97
2017-08-31T19:00:20.246Z,19.01
2017-08-31T19:02:49.637Z,18.91
2017-08-31T19:05:19.039Z,18.96
2017-08-31T19:07:48.570Z,18.89
2017-08-31T19:10:17.884Z,18.88
2017-08-31T19:12:47.330Z,18.94
2017-08-31T19:15:16.840Z,18.94
2017-08-31T19:17:46.688Z,18.91
2017-08-31T19:20:16.109Z,18.86
2017-08-31T19:22:45.480Z,18.79
2017-08-31T19:25:14.809Z,18.84
2017-08-31T19:27:44.076Z,18.81
2017-08-31T19:30:13.873Z,18.71
2017-08-31T19:32:43.268Z,18.73
2017-08-31T19:35:12.685Z,18.77
2017-08-31T19:37:48.575Z,18.74
2017-08-31T19:40:18.312Z,18.62
2017-08-31T19:42:47.791Z,18.61
2017-08-31T19:45:17.242Z,18.51
2017-08-31T19:47:46.537Z,18.64
2017-08-31T19:50:15.896Z,18.59
2017-08-31T19:52:45.356Z,18.60
2017-08-31T19:55:15.408Z,18.69
2017-08-31T19:57:45.018Z,18.61
2017-08-31T20:00:15.393Z,18.69
2017-08-31T20:02:44.806Z,18.67
2017-08-31T20:05:14.268Z,18.57
2017-08-31T20:07:43.619Z,18.65
2017-08-31T20:10:14.087Z,18.69
2017-08-31T20:12:43.398Z,18.58
2017-08-31T20:15:12.965Z,18.49
2017-08-31T20:17:42.395Z,18.54
2017-08-31T20:20:11.937Z,18.42
2017-08-31T20:22:41.467Z,18.42
2017-08-31T20:25:10.837Z,18.33
2017-08-31T20:27:40.344Z,18.41
2017-08-31T20:30:09.999Z,18.34
2017-08-31T20:32:39.501Z,18.28
2017-08-31T20:35:08.954Z,18.37
2017-08-31T20:37:38.609Z,18.36
2017-08-31T20:40:08.341Z,18.33
2017-08-31T20:42:37.669Z,18.35
2017-08-31T20:45:07.031Z,18.33
2017-08-31T20:47:36.353Z,18.34
2017-08-31T20:50:05.932Z,18.35
2017-08-31T20:52:35.283Z,18.37
2017-08-31T20:55:05.901Z,18.33
2017-08-31T20:57:35.200Z,18.32
2017-08-31T21:00:04.711Z,18.18
2017-08-31T21:02:34.066Z,18.12
2017-08-31T21:05:03.553Z,18.22
2017-08-31T21:07:32.904Z,18.16
2017-08-31T21:10:02.253Z,18.19
2017-08-31T21:12:31.800Z,18.11
2017-08-31T21:15:01.639Z,18.06
2017-08-31T21:17:31.185Z,18.18
2017-08-31T21:20:00.856Z,18.17
2017-08-31T21:22:30.404Z,18.07
2017-08-31T21:24:59.688Z,18.00
2017-08-31T21:27:29.046Z,17.96
2017-08-31T21:29:58.558Z,18.02
2017-08-31T21:32:28.240Z,18.05
2017-08-31T21:34:58.051Z,18.01
2017-08-31T21:37:27.652Z,17.97
2017-08-31T21:39:57.028Z,17.94
2017-08-31T21:42:26.380Z,17.87
2017-08-31T21:44:55.717Z,17.76
2017-08-31T21:47:25.016Z,17.83
2017-08-31T21:49:54.294Z,17.83
2017-08-31T21:52:23.656Z,17.85
2017-08-31T21:54:53.156Z,17.76
2017-08-31T21:57:22.600Z,17.82
2017-08-31T21:59:52.086Z,17.83
2017-08-31T22:02:21.417Z,17.84
2017-08-31T22:04:50.778Z,17.78
2017-08-31T22:07:20.169Z,17.70
2017-08-31T22:09:50.269Z,17.74
2017-08-31T22:12:19.621Z,17.72
2017-08-31T22:14:48.906Z,17.72
2017-08-31T22:17:18.356Z,17.76
2017-08-31T22:19:47.923Z,17.72
2017-08-31T22:22:17.480Z,17.74
2017-08-31T22:24:46.993Z,17.77
2017-08-31T22:27:16.509Z,17.79
2017-08-31T22:29:45.787Z,17.74
2017-08-31T22:32:15.277Z,17.74
2017-08-31T22:34:44.581Z,17.67
2017-08-31T22:37:13.912Z,17.63
2017-08-31T22:39:43.200Z,17.57
2017-08-31T22:42:12.584Z,17.54
2017-08-31T22:44:41.992Z,17.62
2017-08-31T22:47:11.352Z,17.62
2017-08-31T22:49:40.661Z,17.37
2017-08-31T22:52:10.164Z,17.38
2017-08-31T22:54:49.200Z,17.38
2017-08-31T22:57:27.700Z,17.44
2017-08-31T22:59:57.078Z,17.41
2017-08-31T23:02:26.400Z,17.29
2017-08-31T23:04:55.909Z,17.17
2017-08-31T23:07:25.291Z,17.22
2017-08-31T23:09:54.714Z,17.23
2017-08-31T23:12:24.197Z,17.26
2017-08-31T23:14:53.590Z,17.24
2017-08-31T23:17:22.897Z,17.21
2017-08-31T23:19:52.184Z,17.21
2017-08-31T23:22:21.505Z,17.16
2017-08-31T23:24:50.965Z,17.04
2017-08-31T23:27:20.682Z,17.11
2017-08-31T23:29:50.174Z,17.08
2017-08-31T23:32:19.484Z,17.17
2017-08-31T23:34:48.932Z,17.04
2017-08-31T23:37:18.327Z,17.06
2017-08-31T23:39:48.198Z,17.07
2017-08-31T23:42:17.823Z,17.04
2017-08-31T23:44:47.532Z,17.09
2017-08-31T23:47:16.980Z,16.86
2017-08-31T23:49:46.247Z,16.90
2017-08-31T23:52:16.212Z,16.90
2017-08-31T23:54:45.507Z,16.89
2017-08-31T23:57:15.093Z,16.80
2017-08-31T23:59:44.666Z,16.80
